createdAt,value
2022-08-09T00:04:00.848Z,59.77
2022-08-09T00:07:21.815Z,60.14
2022-08-09T00:11:24.493Z,60.35
2022-08-09T00:15:09.329Z,60.36
2022-08-09T00:18:57.990Z,60.61
2022-08-09T00:22:41.166Z,60.75
2022-08-09T00:26:33.040Z,60.80
2022-08-09T00:30:25.430Z,60.87
2022-08-09T00:34:09.448Z,61.12
2022-08-09T00:37:53.787Z,61.88
2022-08-09T00:44:10.713Z,62.24
2022-08-09T00:45:46.778Z,62.22
2022-08-09T00:49:38.551Z,62.34
2022-08-09T00:53:23.977Z,62.52
2022-08-09T00:57:10.563Z,62.36
2022-08-09T01:00:55.737Z,62.61
2022-08-09T01:04:50.922Z,62.71
2022-08-09T01:08:48.812Z,62.75
2022-08-09T01:12:39.931Z,62.79
2022-08-09T01:16:25.384Z,62.82
2022-08-09T01:20:10.268Z,62.81
2022-08-09T01:24:02.941Z,62.91
2022-08-09T01:27:52.680Z,63.41
2022-08-09T01:32:32.495Z,63.44
2022-08-09T01:35:43.890Z,63.23
2022-08-09T01:39:27.971Z,63.43
2022-08-09T01:43:15.191Z,63.47
2022-08-09T01:46:59.119Z,63.35
2022-08-09T01:50:44.111Z,63.64
2022-08-09T01:54:33.433Z,63.92
2022-08-09T01:58:18.719Z,64.27
2022-08-09T02:02:09.411Z,64.03
2022-08-09T02:06:06.629Z,64.28
2022-08-09T02:09:59.456Z,64.75
2022-08-09T02:14:06.279Z,65.14
2022-08-09T02:18:00.228Z,65.24
2022-08-09T02:21:55.944Z,65.26
2022-08-09T02:25:42.523Z,65.55
2022-08-09T02:29:37.804Z,66.05
2022-08-09T02:33:23.578Z,66.52
2022-08-09T02:37:31.621Z,66.23
2022-08-09T02:41:17.887Z,66.01
2022-08-09T02:45:04.938Z,66.53
2022-08-09T02:48:51.146Z,66.62
2022-08-09T02:52:39.651Z,66.77
2022-08-09T02:56:23.005Z,67.01
2022-08-09T03:00:25.374Z,67.16
2022-08-09T03:04:18.467Z,67.46
2022-08-09T03:08:03.426Z,67.45
2022-08-09T03:12:06.163Z,66.59
2022-08-09T03:16:05.873Z,66.93
2022-08-09T03:19:59.354Z,66.88
2022-08-09T03:24:01.589Z,66.65
2022-08-09T03:27:50.259Z,67.33
2022-08-09T03:31:42.600Z,67.99
2022-08-09T03:35:44.267Z,68.03
2022-08-09T03:39:40.776Z,68.02
2022-08-09T03:43:33.032Z,67.39
2022-08-09T03:47:17.312Z,67.22
2022-08-09T03:51:00.483Z,67.59
2022-08-09T03:54:45.967Z,67.44
2022-08-09T03:58:33.999Z,67.42
2022-08-09T04:02:19.919Z,67.25
2022-08-09T04:06:09.342Z,67.43
2022-08-09T04:09:54.591Z,67.53
2022-08-09T04:14:37.326Z,67.56
2022-08-09T04:17:43.589Z,67.66
2022-08-09T04:21:26.439Z,67.93
2022-08-09T04:25:10.519Z,67.94
2022-08-09T04:28:57.421Z,67.87
2022-08-09T04:32:46.003Z,67.52
2022-08-09T04:36:32.281Z,67.29
2022-08-09T04:40:19.043Z,67.26
2022-08-09T04:44:07.349Z,67.49
2022-08-09T04:48:00.940Z,67.51
2022-08-09T04:51:46.946Z,67.38
2022-08-09T04:55:35.399Z,67.10
2022-08-09T04:59:22.714Z,66.93
2022-08-09T05:03:30.102Z,66.90
2022-08-09T05:07:17.444Z,66.78
2022-08-09T05:11:02.467Z,66.09
2022-08-09T05:14:45.462Z,65.70
2022-08-09T05:18:50.871Z,65.67
2022-08-09T05:23:51.003Z,65.14
2022-08-09T05:26:46.113Z,65.18
2022-08-09T05:30:31.321Z,64.85
2022-08-09T05:34:16.557Z,64.60
2022-08-09T05:38:00.005Z,64.37
2022-08-09T05:41:44.377Z,64.34
2022-08-09T05:45:52.651Z,64.47
2022-08-09T05:50:26.838Z,64.17
2022-08-09T05:53:39.537Z,64.11
2022-08-09T05:57:51.088Z,63.74
2022-08-09T06:01:42.360Z,63.25
2022-08-09T06:05:31.051Z,63.29
2022-08-09T06:09:55.219Z,63.24
2022-08-09T06:13:33.866Z,63.30
2022-08-09T06:17:17.106Z,63.63
2022-08-09T06:21:02.057Z,63.24
2022-08-09T06:24:47.153Z,62.29
2022-08-09T06:28:32.009Z,61.82
2022-08-09T06:32:53.274Z,61.46
2022-08-09T06:36:18.989Z,61.34
2022-08-09T06:40:21.585Z,61.24
2022-08-09T06:44:07.255Z,59.64
2022-08-09T06:47:50.000Z,59.64
2022-08-09T06:51:45.977Z,59.10
2022-08-09T06:55:31.903Z,58.82
2022-08-09T07:00:54.991Z,59.09
2022-08-09T07:03:17.722Z,58.98
2022-08-09T07:07:05.013Z,58.32
2022-08-09T07:10:48.057Z,57.61
2022-08-09T07:14:30.821Z,57.93
2022-08-09T07:18:15.077Z,56.79
2022-08-09T07:21:59.092Z,55.89
2022-08-09T07:25:44.402Z,55.35
2022-08-09T07:29:30.731Z,55.42
2022-08-09T07:33:20.626Z,55.07
2022-08-09T07:37:03.609Z,53.81
2022-08-09T07:41:08.331Z,53.48
2022-08-09T07:44:54.628Z,53.78
2022-08-09T07:48:39.335Z,52.70
2022-08-09T07:52:22.160Z,52.78
2022-08-09T07:56:08.800Z,51.99
2022-08-09T08:00:10.889Z,52.72
2022-08-09T08:04:04.247Z,51.64
2022-08-09T08:08:43.622Z,50.51
2022-08-09T08:12:09.419Z,50.22
2022-08-09T08:16:01.732Z,48.54
2022-08-09T08:19:44.565Z,48.78
2022-08-09T08:23:29.139Z,48.50
2022-08-09T08:27:19.063Z,48.61
2022-08-09T08:31:14.142Z,48.71
2022-08-09T08:34:58.793Z,49.01
2022-08-09T08:38:41.883Z,48.48
2022-08-09T08:42:32.155Z,48.57
2022-08-09T08:46:32.065Z,48.06
2022-08-09T08:50:18.564Z,48.60
2022-08-09T08:54:06.841Z,48.87
2022-08-09T08:57:56.478Z,48.01
2022-08-09T09:01:53.385Z,47.38
2022-08-09T09:05:58.238Z,48.22
2022-08-09T09:10:01.444Z,47.41
2022-08-09T09:13:55.874Z,46.44
2022-08-09T09:17:49.203Z,46.37
2022-08-09T09:21:43.434Z,45.32
2022-08-09T09:26:01.808Z,46.23
2022-08-09T09:30:14.063Z,45.45
2022-08-09T09:33:46.941Z,45.19
2022-08-09T09:37:40.918Z,44.71
2022-08-09T09:41:48.669Z,45.55
2022-08-09T09:46:39.544Z,43.61
2022-08-09T09:50:14.058Z,43.27
2022-08-09T09:54:17.091Z,43.11
2022-08-09T09:58:18.622Z,43.86
2022-08-09T10:02:03.678Z,42.55
2022-08-09T10:06:03.508Z,42.17
2022-08-09T10:09:55.048Z,42.13
2022-08-09T10:13:43.702Z,41.73
2022-08-09T10:17:39.339Z,41.99
2022-08-09T10:21:33.420Z,41.05
2022-08-09T10:25:16.440Z,43.04
2022-08-09T10:29:21.234Z,44.09
2022-08-09T10:33:09.683Z,42.92
2022-08-09T10:37:13.959Z,42.61
2022-08-09T10:40:57.028Z,43.55
2022-08-09T10:44:40.088Z,43.13
2022-08-09T10:48:30.655Z,44.70
2022-08-09T10:52:22.077Z,44.05
2022-08-09T10:56:22.592Z,43.32
2022-08-09T11:00:51.116Z,44.94
2022-08-09T11:04:55.813Z,44.20
2022-08-09T11:08:47.120Z,43.67
2022-08-09T11:12:30.795Z,42.93
2022-08-09T11:16:35.349Z,44.02
2022-08-09T11:20:23.525Z,43.10
2022-08-09T11:24:06.560Z,42.67
2022-08-09T11:28:04.461Z,43.01
2022-08-09T11:31:52.803Z,42.80
2022-08-09T11:35:49.116Z,41.74
2022-08-09T11:39:33.507Z,43.30
2022-08-09T11:43:39.792Z,42.17
2022-08-09T11:47:22.609Z,41.75
2022-08-09T11:51:21.279Z,42.26
2022-08-09T11:55:35.019Z,40.55
2022-08-09T11:59:35.241Z,41.33
2022-08-09T12:03:55.807Z,40.26
2022-08-09T12:07:41.345Z,40.23
2022-08-09T12:11:27.417Z,40.28
2022-08-09T12:15:48.726Z,38.88
2022-08-09T12:19:30.307Z,39.39
2022-08-09T12:23:14.491Z,39.33
2022-08-09T12:29:14.403Z,38.24
2022-08-09T12:31:58.825Z,37.04
2022-08-09T12:35:40.068Z,37.03
2022-08-09T12:39:25.265Z,37.69
2022-08-09T12:43:10.385Z,38.06
2022-08-09T12:46:53.261Z,37.46
2022-08-09T12:50:36.713Z,37.16
2022-08-09T12:54:20.081Z,37.35
2022-08-09T12:58:24.446Z,37.15
2022-08-09T13:02:11.149Z,36.44
2022-08-09T13:06:14.363Z,36.59
2022-08-09T13:10:02.760Z,36.74
2022-08-09T13:14:41.101Z,36.40
2022-08-09T13:18:05.452Z,36.15
2022-08-09T13:22:36.093Z,34.53
2022-08-09T13:26:11.122Z,35.68
2022-08-09T13:30:03.635Z,35.67
2022-08-09T13:34:00.255Z,35.37
2022-08-09T13:37:52.081Z,33.92
2022-08-09T13:41:58.907Z,33.02
2022-08-09T13:46:44.774Z,33.60
2022-08-09T13:49:57.475Z,33.27
2022-08-09T13:53:43.181Z,32.85
2022-08-09T13:57:36.970Z,32.03
2022-08-09T14:02:00.502Z,32.03
2022-08-09T14:05:59.912Z,30.62
2022-08-09T14:09:30.791Z,31.78
2022-08-09T14:13:27.698Z,30.84
2022-08-09T14:17:22.524Z,29.66
2022-08-09T14:21:06.011Z,29.42
2022-08-09T14:24:54.040Z,29.77
2022-08-09T14:28:37.060Z,30.14
2022-08-09T14:32:28.744Z,28.71
2022-08-09T14:36:20.350Z,28.78
2022-08-09T14:40:04.367Z,27.39
2022-08-09T14:43:53.453Z,28.19
2022-08-09T14:47:46.309Z,26.66
2022-08-09T14:51:42.258Z,26.13
2022-08-09T14:55:25.674Z,25.94
2022-08-09T14:59:15.255Z,25.08
2022-08-09T15:03:00.035Z,24.10
2022-08-09T15:06:43.010Z,23.53
2022-08-09T15:10:33.337Z,22.44
2022-08-09T15:14:19.100Z,21.33
2022-08-09T15:18:03.514Z,20.35
2022-08-09T15:22:01.825Z,17.83
2022-08-09T15:25:45.262Z,17.27
2022-08-09T15:30:56.975Z,16.40
2022-08-09T15:34:15.526Z,15.81
2022-08-09T15:38:00.697Z,15.12
2022-08-09T15:41:42.194Z,14.90
2022-08-09T15:45:29.343Z,15.49
2022-08-09T15:49:20.730Z,15.68
2022-08-09T15:53:32.625Z,16.02
2022-08-09T15:57:09.631Z,16.93
2022-08-09T16:00:52.525Z,17.12
2022-08-09T16:04:37.121Z,17.75
2022-08-09T16:08:30.078Z,18.36
2022-08-09T16:12:14.148Z,18.38
2022-08-09T16:16:04.742Z,18.79
2022-08-09T16:20:04.867Z,18.96
2022-08-09T16:23:55.957Z,19.22
2022-08-09T16:27:47.887Z,19.68
2022-08-09T16:32:10.238Z,20.53
2022-08-09T16:35:57.981Z,21.18
2022-08-09T16:39:54.528Z,21.61
2022-08-09T16:43:44.720Z,21.90
2022-08-09T16:48:38.471Z,22.61
2022-08-09T16:51:31.691Z,22.82
2022-08-09T16:55:18.168Z,24.02
2022-08-09T16:59:06.709Z,24.73
2022-08-09T17:02:57.185Z,24.53
2022-08-09T17:08:40.829Z,25.10
2022-08-09T17:10:44.280Z,25.41
2022-08-09T17:14:28.850Z,25.25
2022-08-09T17:18:11.741Z,25.78
2022-08-09T17:21:59.673Z,26.06
2022-08-09T17:25:42.551Z,26.54
2022-08-09T17:29:25.315Z,26.88
2022-08-09T17:33:22.549Z,27.09
2022-08-09T17:37:07.647Z,27.20
2022-08-09T17:41:03.273Z,28.27
2022-08-09T17:44:49.491Z,29.26
2022-08-09T17:48:32.644Z,29.04
2022-08-09T17:52:20.600Z,30.01
2022-08-09T17:56:08.325Z,30.52
2022-08-09T18:00:00.837Z,30.73
2022-08-09T18:03:49.189Z,31.34
2022-08-09T18:07:34.448Z,31.97
2022-08-09T18:11:17.620Z,32.35
2022-08-09T18:15:07.748Z,32.90
2022-08-09T18:18:54.761Z,33.25
2022-08-09T18:22:39.976Z,33.62
2022-08-09T18:26:27.054Z,34.06
2022-08-09T18:30:39.959Z,34.50
2022-08-09T18:34:13.421Z,34.56
2022-08-09T18:37:57.535Z,34.92
2022-08-09T18:41:42.140Z,35.49
2022-08-09T18:46:51.267Z,36.03
2022-08-09T18:49:41.766Z,36.53
2022-08-09T18:53:36.772Z,36.72
2022-08-09T18:57:38.573Z,37.22
2022-08-09T19:01:27.683Z,37.32
2022-08-09T19:05:20.596Z,37.85
2022-08-09T19:09:34.365Z,38.14
2022-08-09T19:13:20.779Z,38.51
2022-08-09T19:17:06.561Z,38.43
2022-08-09T19:20:52.294Z,38.68
2022-08-09T19:25:08.800Z,39.41
2022-08-09T19:28:48.777Z,39.58
2022-08-09T19:32:32.000Z,40.08
2022-08-09T19:36:16.434Z,39.77
2022-08-09T19:40:05.071Z,39.81
2022-08-09T19:44:02.206Z,40.16
2022-08-09T19:47:45.762Z,40.37
2022-08-09T19:51:31.068Z,40.74
2022-08-09T19:55:15.453Z,40.82
2022-08-09T19:59:18.252Z,41.27
2022-08-09T20:04:13.854Z,41.73
2022-08-09T20:07:06.299Z,41.89
2022-08-09T20:10:51.547Z,41.66
2022-08-09T20:14:35.997Z,41.86
2022-08-09T20:18:32.813Z,42.07
2022-08-09T20:22:15.657Z,41.90
2022-08-09T20:26:02.961Z,41.83
2022-08-09T20:29:45.748Z,41.94
2022-08-09T20:33:41.307Z,42.20
2022-08-09T20:38:19.450Z,42.20
2022-08-09T20:41:34.914Z,42.47
2022-08-09T20:45:56.787Z,42.58
2022-08-09T20:49:23.201Z,42.84
2022-08-09T20:53:21.095Z,43.11
2022-08-09T20:57:10.165Z,43.45
2022-08-09T21:01:13.745Z,43.74
2022-08-09T21:05:52.070Z,44.38
2022-08-09T21:08:59.428Z,43.68
2022-08-09T21:16:40.572Z,44.37
2022-08-09T21:20:26.340Z,45.02
2022-08-09T21:24:09.942Z,44.88
2022-08-09T21:27:55.482Z,44.73
2022-08-09T21:31:49.090Z,45.45
2022-08-09T21:35:40.535Z,45.79
2022-08-09T21:39:42.349Z,46.25
2022-08-09T21:43:31.433Z,46.19
2022-08-09T21:47:29.447Z,46.55
2022-08-09T21:51:14.114Z,46.44
2022-08-09T21:55:03.802Z,46.43
2022-08-09T21:58:48.720Z,46.92
2022-08-09T22:02:36.651Z,47.15
2022-08-09T22:06:20.689Z,47.39
2022-08-09T22:10:05.924Z,47.75
2022-08-09T22:13:50.003Z,47.95
2022-08-09T22:17:34.106Z,48.02
2022-08-09T22:21:22.433Z,48.72
2022-08-09T22:26:07.033Z,48.95
2022-08-09T22:29:12.010Z,49.38
2022-08-09T22:32:54.792Z,49.41
2022-08-09T22:36:46.148Z,49.97
2022-08-09T22:40:29.459Z,50.53
2022-08-09T22:44:18.393Z,50.54
2022-08-09T22:48:10.695Z,50.93
2022-08-09T22:52:01.890Z,50.90
2022-08-09T22:56:29.711Z,50.94
2022-08-09T22:59:56.119Z,51.33
2022-08-09T23:04:03.490Z,51.55
2022-08-09T23:08:22.161Z,51.82
2022-08-09T23:12:05.189Z,51.89
2022-08-09T23:16:02.597Z,52.14
2022-08-09T23:20:07.039Z,52.50
2022-08-09T23:24:05.414Z,52.38
2022-08-09T23:27:57.220Z,52.80
2022-08-09T23:31:54.520Z,52.80
2022-08-09T23:36:06.328Z,52.79
2022-08-09T23:39:40.316Z,52.75
2022-08-09T23:43:23.450Z,52.73
2022-08-09T23:47:07.774Z,52.46
2022-08-09T23:50:50.567Z,52.95
2022-08-09T23:54:33.415Z,52.67
2022-08-09T23:58:25.988Z,53.31
